Details From MNMG - Managua Intl
To MGPB - PUERTO BARRIOS
Flight Number -
Tags decoded
Created
Modified
Stats Distance 324 nm / 599 km
Max Altitude 0 ft / 0 m
Waypoints 9
Social Downloads 3
Likes 0
Share VATSIM

Download

Looking for another format? Having issues loading an existing format? Contact us
Advertisement - Login to hide

Notes

Requested: MNMG BERTA LIBIS TNT LEPAX NAGEL URNOS PENRU MGPB

Route

MNMG BERTA LIBIS TNT LEPAX NAGEL URNOS PENRU MGPB

ID Type Via Altitude Latitude Longitude Leg Dist Tot Dist Heading (true) Name
O MNMG APT - 0 ft / 0 m 12.14149˚ -86.16818˚ - 0 nm - Managua Intl
BERTA FIX - 0 ft / 0 m 12.95000˚ -86.77333˚ 60 nm 60 nm 324° / 324° -
LIBIS FIX - 0 ft / 0 m 13.61333˚ -87.26667˚ 49 nm 109 nm 324° / 324° -
TNT VOR - 0 ft / 0 m 14.02889˚ -87.22917˚ 25 nm 134 nm 5° / 5° TONCONTIN VOR-DME
LEPAX FIX - 0 ft / 0 m 14.10167˚ -87.65167˚ 24 nm 159 nm 280° / 280° -
NAGEL FIX - 0 ft / 0 m 14.26333˚ -88.59000˚ 55 nm 214 nm 280° / 280° -
URNOS FIX - 0 ft / 0 m 14.32500˚ -88.95500˚ 21 nm 236 nm 280° / 280° -
PENRU FIX - 0 ft / 0 m 15.19500˚ -88.73333˚ 53 nm 290 nm 14° / 14° -
O MGPB APT - 0 ft / 0 m 15.73087˚ -88.58377˚ 33 nm 323 nm 15° / 15° PUERTO BARRIOS

Altitude Profile

Advertisement - Login to hide

Weather


0- 5 10 15 20 25 30 35+ Temperature / ° C

Clouds and Precipitation
Forecast for 2017-12-18 06:00 UTC. Updated 25 minutes ago

Ground ~20,000 ft ~40,000 ft Winds

MNMG

Details ICAO MNMG (MGA)
Name Managua Intl
Region Nicaragua
Timezone America/Managua (UTC-6.0)
Stats Elevation 194 ft / 59 m (AMSL)
Location 12.141493° -86.168178°
Runways 1
Magnetic Variation 0.947° W

METAR

MNMG 180500Z 14006KT 9999 FEW020 24/22 Q1011 A2987 NOSIG

Decode

TAF

Not found

Departure Runways

ID Width Length Bearing (true) Bearing (mag) Surface Threshold Offset Overrun Length
09 148 ft / 45 m 8,008 ft / 2,441 m 96.54° 97.49° Asphalt 0 ft / 0 m 100 ft / 30 m
27 148 ft / 45 m 8,008 ft / 2,441 m 276.55° 277.50° Asphalt 0 ft / 0 m 100 ft / 30 m

MGPB

Details ICAO MGPB (PBR)
Name PUERTO BARRIOS
Region Guatemala
Timezone America/Guatemala (UTC-6.0)
Stats Elevation 33 ft / 10 m (AMSL)
Location 15.730872° -88.583765°
Runways 1
Magnetic Variation 0.146° W

METAR

MGPB 180500Z 00000KT 9999 -DZ SCT017 BKN080 24/23 Q1016 A3000

Decode

TAF

Not found

Destination Runways

ID Width Length Bearing (true) Bearing (mag) Surface Threshold Offset Overrun Length
12 110 ft / 34 m 8,861 ft / 2,701 m 127.91° 128.06° Concrete 0 ft / 0 m 0 ft / 0 m
30 110 ft / 34 m 8,861 ft / 2,701 m 307.92° 308.07° Concrete 0 ft / 0 m 0 ft / 0 m

Popular Alternatives